KDAN/DAN METAR and TAF weather

Enter ICAO airport designator
Station Type Date Time Source
KDAN METAR 2019/04/18 09:53 UTC NOAA

KDAN 180953Z AUTO 00000KT 10SM CLR 13/12 A2998 RMK AO2 SLP143 T01280117


Station Type Date Time Source
KDAN Decoded METAR 2019/04/18 09:53 UTC NOAA

DANVILLE REGIONAL AIRPORT, VA, United States (KDAN) 36-34N 079-20W 175M
Apr 18, 2019 - 05:53 AM EDT / 2019.04.18 0953 UTC
Wind: Calm:0
Visibility: 10 mile(s):0
Sky conditions: clear
Temperature: 55.0 F (12.8 C)
Dew Point: 53.1 F (11.7 C)
Relative Humidity: 93%
Pressure (altimeter): 29.98 in. Hg (1015 hPa)
ob: KDAN 180953Z AUTO 00000KT 10SM CLR 13/12 A2998 RMK AO2 SLP143 T01280117
cycle: 10

Station Type Date Time Source
KDAN TAF 2019/04/18 06:33 UTC NOAA

TAF KDAN 180530Z 1806/1906 20005KT P6SM SKC
FM181700 21010G18KT P6SM SCT250
FM190000 18007KT P6SM SCT060
FM190200 18009KT P6SM BKN060
FM190300 18009KT P6SM BKN023

Example: see airport list